Time;durP1;ratioP1;P1;durP2;ratioP2;P2;SDS_P1;SDS_P2;PMS_P1;PMS_P2;Temp;Humidity;BMP_temperature;BMP_pressure;BME280_temperature;BME280_humidity;BME280_pressure;Samples;Min_cycle;Max_cycle;Signal;HPM_P1;HPM_P2
2022/01/13 00:01:31;;;;;;;159.88;27.83;;;3.40;99.90;;;;;;5092938;28;20020;-80
2022/01/13 00:03:58;;;;;;;143.57;28.55;;;3.40;99.90;;;;;;5092901;28;20036;-80
2022/01/13 00:06:24;;;;;;;119.90;26.45;;;3.50;99.90;;;;;;5093067;28;20043;-80
2022/01/13 00:08:50;;;;;;;159.15;27.95;;;3.50;99.90;;;;;;5092631;28;20111;-79
2022/01/13 00:11:15;;;;;;;175.68;30.77;;;3.30;99.90;;;;;;5093095;28;20035;-80
2022/01/13 00:14:37;;;;;;;111.70;26.42;;;3.40;99.90;;;;;;5092975;28;20039;-79
2022/01/13 00:22:01;;;;;;;195.55;29.65;;;3.20;99.90;;;;;;5092982;28;20032;-78
2022/01/13 00:24:27;;;;;;;159.15;26.75;;;3.30;99.90;;;;;;5092929;28;20449;-79
2022/01/13 00:26:54;;;;;;;168.25;27.65;;;3.10;99.90;;;;;;5092587;28;20055;-80
2022/01/13 00:29:26;;;;;;;125.65;24.92;;;2.90;99.90;;;;;;5091571;28;20028;-79
2022/01/13 00:31:52;;;;;;;136.25;25.33;;;2.90;99.90;;;;;;5091458;28;20369;-80
2022/01/13 00:34:18;;;;;;;110.40;26.08;;;2.80;99.90;;;;;;5091590;28;20023;-79
2022/01/13 00:36:44;;;;;;;129.25;24.23;;;2.70;99.90;;;;;;5094573;28;20461;-80
2022/01/13 00:39:11;;;;;;;158.25;28.98;;;2.80;99.90;;;;;;5096752;28;20023;-79
2022/01/13 00:41:38;;;;;;;126.22;26.75;;;2.80;99.90;;;;;;5097216;28;20349;-78
2022/01/13 00:44:06;;;;;;;138.73;30.27;;;2.90;99.90;;;;;;5096213;28;20113;-79
2022/01/13 00:46:43;;;;;;;122.63;26.75;;;2.90;99.90;;;;;;5096744;28;20024;-80
2022/01/13 00:49:12;;;;;;;165.60;28.33;;;2.90;99.90;;;;;;5096533;28;20525;-79
2022/01/13 00:51:38;;;;;;;70.53;26.65;;;2.80;99.90;;;;;;5095486;28;20028;-79
2022/01/13 00:54:06;;;;;;;136.93;27.63;;;2.70;99.90;;;;;;5096221;28;20030;-79
2022/01/13 00:56:33;;;;;;;158.60;28.10;;;2.60;99.90;;;;;;5096655;28;20387;-80
2022/01/13 00:58:59;;;;;;;77.45;23.23;;;2.70;99.90;;;;;;5096134;28;20407;-79
2022/01/13 01:01:25;;;;;;;97.03;23.13;;;2.80;99.90;;;;;;5095348;28;20586;-80
2022/01/13 01:03:51;;;;;;;112.88;24.17;;;2.60;99.90;;;;;;5096099;28;20021;-79
2022/01/13 01:06:17;;;;;;;174.02;24.63;;;2.60;99.90;;;;;;5096402;28;20036;-80
2022/01/13 01:08:43;;;;;;;132.98;25.02;;;2.50;99.90;;;;;;5096198;28;20052;-80
2022/01/13 01:11:09;;;;;;;273.52;31.75;;;2.60;99.90;;;;;;5096369;28;20465;-79
2022/01/13 01:13:36;;;;;;;231.05;30.60;;;2.60;99.90;;;;;;5095783;28;20461;-80
2022/01/13 01:16:09;;;;;;;124.57;26.75;;;2.70;99.90;;;;;;5096151;28;20103;-80
2022/01/13 01:28:59;;;;;;;174.50;27.75;;;2.70;99.90;;;;;;5095581;28;20035;-79
2022/01/13 01:31:29;;;;;;;267.45;31.65;;;2.80;99.90;;;;;;5094709;28;20385;-79
2022/01/13 01:36:40;;;;;;;174.50;29.15;;;2.90;99.90;;;;;;5095794;28;20398;-79
2022/01/13 01:39:07;;;;;;;137.35;27.85;;;2.80;99.90;;;;;;5095551;28;20036;-79
2022/01/13 01:41:38;;;;;;;118.85;28.42;;;2.50;99.90;;;;;;5095571;28;20124;-79
2022/01/13 01:44:15;;;;;;;138.88;27.33;;;2.40;99.90;;;;;;5095611;28;20039;-78
2022/01/13 01:46:45;;;;;;;145.25;26.88;;;2.30;99.90;;;;;;5095243;28;20032;-79
2022/01/13 01:49:17;;;;;;;189.10;29.25;;;2.30;99.90;;;;;;5095531;28;20028;-78
2022/01/13 01:51:48;;;;;;;161.88;29.95;;;2.40;99.90;;;;;;5095621;28;20036;-78
2022/01/13 01:54:14;;;;;;;123.80;23.95;;;2.60;99.90;;;;;;5094068;28;20493;-80
2022/01/13 01:56:41;;;;;;;265.27;31.17;;;2.50;99.90;;;;;;5095062;28;20089;-79
2022/01/13 01:59:12;;;;;;;290.33;31.40;;;2.50;99.90;;;;;;5095283;28;20446;-79
2022/01/13 02:01:38;;;;;;;317.50;33.97;;;2.70;99.90;;;;;;5095390;28;20016;-79
2022/01/13 02:04:04;;;;;;;171.63;29.13;;;2.80;99.90;;;;;;5095005;28;20040;-79
2022/01/13 02:06:29;;;;;;;159.40;28.27;;;2.70;99.90;;;;;;5095135;28;20020;-79
2022/01/13 02:08:56;;;;;;;109.55;26.80;;;2.60;99.90;;;;;;5095081;28;20039;-74
2022/01/13 02:11:24;;;;;;;139.45;28.98;;;2.60;99.90;;;;;;5093498;28;20063;-79
2022/01/13 02:13:53;;;;;;;104.55;26.05;;;2.50;99.90;;;;;;5095147;28;20016;-78
2022/01/13 02:19:00;;;;;;;241.93;29.23;;;2.30;99.90;;;;;;5093605;28;20046;-79
2022/01/13 02:21:26;;;;;;;250.68;31.02;;;2.30;99.90;;;;;;5094852;28;20053;-79
2022/01/13 02:23:55;;;;;;;238.90;30.42;;;2.40;99.90;;;;;;5094679;28;20036;-79
2022/01/13 02:26:21;;;;;;;189.98;27.42;;;2.40;99.90;;;;;;5094391;28;20383;-79
2022/01/13 02:28:48;;;;;;;112.55;26.52;;;2.50;99.90;;;;;;5094849;28;20035;-79
2022/01/13 02:31:14;;;;;;;143.75;28.15;;;2.30;99.90;;;;;;5094491;28;20016;-79
2022/01/13 02:33:40;;;;;;;212.10;31.65;;;2.30;99.90;;;;;;5093337;28;20036;-79
2022/01/13 02:36:07;;;;;;;127.45;29.90;;;2.30;99.90;;;;;;5094337;28;20024;-79
2022/01/13 02:38:34;;;;;;;192.23;28.80;;;2.30;99.90;;;;;;5094718;28;20035;-79
2022/01/13 02:41:00;;;;;;;187.95;29.35;;;2.30;99.90;;;;;;5094229;28;20016;-78
2022/01/13 02:43:30;;;;;;;167.07;28.95;;;2.30;99.90;;;;;;5094552;28;20028;-79
2022/01/13 02:46:18;;;;;;;214.55;35.10;;;2.40;99.90;;;;;;5094174;28;20373;-79
2022/01/13 02:48:44;;;;;;;184.90;30.75;;;2.50;99.90;;;;;;5094336;28;20036;-79
2022/01/13 02:51:10;;;;;;;135.77;28.48;;;2.50;99.90;;;;;;5093065;28;20036;-79
2022/01/13 02:53:36;;;;;;;142.63;31.63;;;2.50;99.90;;;;;;5094160;28;20108;-79
2022/01/13 02:56:04;;;;;;;255.48;34.10;;;2.50;99.90;;;;;;5094270;28;20075;-79
2022/01/13 02:58:34;;;;;;;110.93;28.48;;;2.50;99.90;;;;;;5093582;28;20489;-79
2022/01/13 03:01:01;;;;;;;210.50;29.85;;;2.50;99.90;;;;;;5075867;28;20158;-77
2022/01/13 03:03:29;;;;;;;230.50;33.58;;;2.50;99.90;;;;;;5094475;28;20111;-79
2022/01/13 03:05:55;;;;;;;136.23;30.48;;;2.50;99.90;;;;;;5093901;28;20036;-78
2022/01/13 03:08:21;;;;;;;309.73;34.40;;;2.40;99.90;;;;;;5092570;28;20571;-77
2022/01/13 03:10:47;;;;;;;180.10;29.00;;;2.60;99.90;;;;;;5092338;28;20028;-78
2022/01/13 03:13:13;;;;;;;216.80;30.45;;;2.70;99.90;;;;;;5094023;28;20028;-78
2022/01/13 03:15:39;;;;;;;151.80;29.27;;;2.80;99.90;;;;;;5093760;28;20028;-78
2022/01/13 03:18:05;;;;;;;259.80;30.75;;;2.60;99.90;;;;;;5093726;28;20499;-78
2022/01/13 03:20:30;;;;;;;121.65;31.08;;;2.50;99.90;;;;;;5093661;28;20046;-78
2022/01/13 03:22:56;;;;;;;219.27;33.85;;;2.50;99.90;;;;;;5092068;28;20032;-78
2022/01/13 03:25:23;;;;;;;292.73;36.75;;;2.60;99.90;;;;;;5093363;28;20051;-79
2022/01/13 03:27:57;;;;;;;284.77;34.70;;;2.50;99.90;;;;;;5073531;28;20021;-78
2022/01/13 03:30:23;;;;;;;391.15;39.50;;;2.60;99.90;;;;;;5073362;28;20404;-79
2022/01/13 03:32:49;;;;;;;384.88;41.00;;;2.60;99.90;;;;;;5073235;28;20020;-79
2022/01/13 03:35:15;;;;;;;213.60;35.08;;;2.70;99.90;;;;;;5073267;28;20435;-79
2022/01/13 03:37:40;;;;;;;196.55;33.13;;;2.60;99.90;;;;;;5072857;28;20027;-79
2022/01/13 03:40:07;;;;;;;433.52;41.78;;;2.60;99.90;;;;;;5073277;28;20070;-78
2022/01/13 03:42:33;;;;;;;430.35;43.50;;;2.60;99.90;;;;;;5072929;28;20025;-79
2022/01/13 03:45:00;;;;;;;359.48;38.78;;;2.60;99.90;;;;;;5073552;28;20039;-79
2022/01/13 03:47:26;;;;;;;411.85;43.22;;;2.60;99.90;;;;;;5072808;28;20036;-79
2022/01/13 03:49:51;;;;;;;360.30;39.17;;;2.60;99.90;;;;;;5072935;28;20035;-77
2022/01/13 03:52:23;;;;;;;308.00;35.42;;;2.50;99.90;;;;;;5072737;28;20043;-79
2022/01/13 03:55:07;;;;;;;410.88;41.80;;;2.50;99.90;;;;;;5073098;28;20031;-79
2022/01/13 03:58:12;;;;;;;287.98;40.22;;;2.50;99.90;;;;;;5072954;28;20029;-79
2022/01/13 04:01:15;;;;;;;462.75;43.70;;;2.40;99.90;;;;;;5061790;28;20388;-79
2022/01/13 04:03:41;;;;;;;403.00;36.33;;;2.40;99.90;;;;;;5071595;28;20028;-79
2022/01/13 04:06:29;;;;;;;306.00;35.47;;;2.50;99.90;;;;;;5072586;28;20033;-80
2022/01/13 04:08:55;;;;;;;317.60;34.47;;;2.40;99.90;;;;;;5075002;28;20033;-79
2022/01/13 04:11:28;;;;;;;340.85;39.35;;;2.20;99.90;;;;;;5091703;28;20097;-80
2022/01/13 04:14:01;;;;;;;310.25;34.47;;;2.30;99.90;;;;;;5092898;28;20430;-79
2022/01/13 04:16:29;;;;;;;315.17;36.67;;;2.40;99.90;;;;;;5092947;28;20077;-79
2022/01/13 04:19:04;;;;;;;297.40;35.03;;;2.40;99.90;;;;;;5092962;28;20028;-79
2022/01/13 04:21:30;;;;;;;318.15;36.15;;;2.20;99.90;;;;;;5092918;28;20044;-78
2022/01/13 04:23:57;;;;;;;385.00;42.78;;;2.20;99.90;;;;;;5092773;28;20388;-78
2022/01/13 04:26:28;;;;;;;236.98;32.22;;;2.30;99.90;;;;;;5092708;28;20032;-79
2022/01/13 04:29:16;;;;;;;398.42;39.13;;;2.20;99.90;;;;;;5092811;28;20020;-79
2022/01/13 04:31:44;;;;;;;223.25;33.33;;;2.10;99.90;;;;;;5092942;28;20437;-79
2022/01/13 04:34:11;;;;;;;260.42;36.42;;;2.30;99.90;;;;;;5092553;28;20464;-79
2022/01/13 04:36:37;;;;;;;199.75;32.58;;;2.40;99.90;;;;;;5092567;28;20081;-79
2022/01/13 04:39:05;;;;;;;176.95;30.98;;;2.30;99.90;;;;;;5092735;28;20059;-79
2022/01/13 04:41:34;;;;;;;209.90;31.13;;;2.20;99.90;;;;;;5092765;28;20037;-78
2022/01/13 04:44:02;;;;;;;222.30;30.42;;;2.20;99.90;;;;;;5092782;28;20353;-79
2022/01/13 04:46:27;;;;;;;213.93;29.35;;;2.30;99.90;;;;;;5092607;28;20039;-79
2022/01/13 04:48:53;;;;;;;247.95;32.20;;;2.20;99.90;;;;;;5084250;28;20020;-78
2022/01/13 04:51:19;;;;;;;394.52;41.78;;;2.30;99.90;;;;;;5071034;28;20120;-79
2022/01/13 04:53:45;;;;;;;324.98;35.65;;;2.50;99.90;;;;;;5072311;28;20017;-76
2022/01/13 04:56:13;;;;;;;377.00;38.20;;;2.50;99.90;;;;;;5072502;28;20036;-78
2022/01/13 04:58:39;;;;;;;292.23;33.88;;;2.60;99.90;;;;;;5072310;28;20067;-79
2022/01/13 05:01:05;;;;;;;327.55;35.60;;;2.60;99.90;;;;;;5072338;28;20032;-79
2022/01/13 05:03:31;;;;;;;400.30;37.28;;;2.50;99.90;;;;;;5070786;28;20025;-77
2022/01/13 05:05:57;;;;;;;291.08;31.92;;;2.30;99.90;;;;;;5070614;28;20481;-79
2022/01/13 05:08:23;;;;;;;467.83;39.92;;;2.30;99.90;;;;;;5072149;28;20032;-78
2022/01/13 05:10:48;;;;;;;279.77;32.47;;;2.30;99.90;;;;;;5090297;28;20532;-79
2022/01/13 05:13:14;;;;;;;452.10;35.15;;;2.30;99.90;;;;;;5092400;28;20034;-79
2022/01/13 05:15:43;;;;;;;236.38;29.45;;;2.30;99.90;;;;;;5092329;28;20016;-79
2022/01/13 05:18:19;;;;;;;401.52;38.53;;;2.20;99.90;;;;;;5092567;28;20095;-79
2022/01/13 05:21:01;;;;;;;341.80;32.13;;;2.30;99.90;;;;;;5092024;28;20536;-78
2022/01/13 05:23:27;;;;;;;299.85;35.15;;;2.20;99.90;;;;;;5093676;28;20441;-78
2022/01/13 05:25:53;;;;;;;410.85;38.03;;;2.40;99.90;;;;;;5095609;28;20166;-79
2022/01/13 05:28:18;;;;;;;218.95;28.48;;;2.50;99.90;;;;;;5095947;28;20524;-79
2022/01/13 05:30:44;;;;;;;270.48;30.77;;;2.30;99.90;;;;;;5095826;28;20111;-79
2022/01/13 05:33:10;;;;;;;232.25;25.58;;;2.30;99.90;;;;;;5095613;28;20048;-78
2022/01/13 05:35:37;;;;;;;343.25;33.13;;;2.10;99.90;;;;;;5095551;28;20028;-78
2022/01/13 05:38:06;;;;;;;465.30;36.63;;;2.20;99.90;;;;;;5095877;28;20468;-78
2022/01/13 05:40:33;;;;;;;303.75;32.88;;;2.20;99.90;;;;;;5095666;28;20099;-78
2022/01/13 05:42:59;;;;;;;372.38;36.88;;;2.20;99.90;;;;;;5095517;28;20548;-79
2022/01/13 05:45:29;;;;;;;303.92;36.67;;;2.10;99.90;;;;;;5094324;28;20111;-79
2022/01/13 05:47:57;;;;;;;171.90;25.55;;;2.30;99.90;;;;;;5094218;28;20115;-78
2022/01/13 05:50:23;;;;;;;327.52;34.00;;;2.00;99.90;;;;;;5095726;28;20116;-79
2022/01/13 05:52:49;;;;;;;463.73;40.08;;;2.00;99.90;;;;;;5095729;28;20032;-79
2022/01/13 05:55:16;;;;;;;319.38;34.97;;;1.90;99.90;;;;;;5095267;28;20040;-74
2022/01/13 05:57:42;;;;;;;374.52;32.20;;;2.10;99.90;;;;;;5094249;28;20084;-78
2022/01/13 06:00:11;;;;;;;358.10;33.97;;;2.10;99.90;;;;;;5095150;28;20028;-78
2022/01/13 06:02:40;;;;;;;411.60;36.58;;;2.00;99.90;;;;;;5095084;28;20480;-79
2022/01/13 06:05:07;;;;;;;358.55;32.08;;;2.00;99.90;;;;;;5093904;28;20055;-77
2022/01/13 06:07:33;;;;;;;563.30;44.38;;;1.90;99.90;;;;;;5095128;28;20024;-79
2022/01/13 06:09:59;;;;;;;455.63;35.40;;;1.90;99.90;;;;;;5095007;28;20047;-79
2022/01/13 06:12:32;;;;;;;385.48;31.90;;;2.00;99.90;;;;;;5094925;28;20349;-79
2022/01/13 06:15:04;;;;;;;567.00;39.85;;;1.90;99.90;;;;;;5095036;28;20036;-79
2022/01/13 06:17:29;;;;;;;383.17;31.13;;;1.90;99.90;;;;;;5094820;28;20025;-79
2022/01/13 06:19:59;;;;;;;440.33;36.78;;;1.90;99.90;;;;;;5094545;28;20042;-79
2022/01/13 06:22:26;;;;;;;325.65;31.20;;;2.10;99.90;;;;;;5094852;28;20142;-79
2022/01/13 06:24:52;;;;;;;432.90;38.85;;;2.10;99.90;;;;;;5093383;28;20107;-78
2022/01/13 06:27:19;;;;;;;523.72;38.17;;;2.00;99.90;;;;;;5094838;28;20046;-78
2022/01/13 06:29:45;;;;;;;422.25;33.08;;;2.00;99.90;;;;;;5094665;28;20388;-78
2022/01/13 06:32:10;;;;;;;417.25;39.65;;;1.90;99.90;;;;;;5094263;28;20110;-78
2022/01/13 06:34:36;;;;;;;335.30;36.17;;;1.90;99.90;;;;;;5093437;28;20028;-79
2022/01/13 06:37:02;;;;;;;331.98;36.58;;;1.90;99.90;;;;;;5094532;28;20030;-78
2022/01/13 06:39:28;;;;;;;295.13;33.05;;;1.90;99.90;;;;;;5094543;28;20026;-79
2022/01/13 06:41:54;;;;;;;378.02;35.80;;;1.80;99.90;;;;;;5094407;28;20473;-79
2022/01/13 06:44:20;;;;;;;411.50;40.50;;;1.90;99.90;;;;;;5094574;28;20418;-79
2022/01/13 06:46:45;;;;;;;241.98;27.83;;;1.80;99.90;;;;;;5093991;28;20032;-78
2022/01/13 06:49:11;;;;;;;376.35;34.17;;;1.90;99.90;;;;;;5094498;28;20028;-78
2022/01/13 06:51:37;;;;;;;445.98;36.03;;;1.90;99.90;;;;;;5094323;28;20035;-79
2022/01/13 06:54:02;;;;;;;442.45;35.42;;;2.00;99.90;;;;;;5094169;28;20063;-79
2022/01/13 06:56:29;;;;;;;457.23;39.28;;;1.90;99.90;;;;;;5094295;28;20039;-80
2022/01/13 06:58:55;;;;;;;339.40;33.90;;;1.90;99.90;;;;;;5094422;28;20070;-79
2022/01/13 07:01:22;;;;;;;356.20;36.30;;;1.90;99.90;;;;;;5093940;28;20040;-77
2022/01/13 07:03:49;;;;;;;308.48;32.70;;;1.90;99.90;;;;;;5092599;28;20019;-78
2022/01/13 07:06:15;;;;;;;467.92;40.78;;;2.00;99.90;;;;;;5075687;28;20051;-78
2022/01/13 07:08:41;;;;;;;571.15;46.22;;;2.00;99.90;;;;;;5092535;28;20464;-78
2022/01/13 07:11:06;;;;;;;400.13;38.78;;;2.00;99.90;;;;;;5093825;28;20380;-79
2022/01/13 07:13:33;;;;;;;424.52;36.20;;;1.90;99.90;;;;;;5093915;28;20036;-79
2022/01/13 07:16:00;;;;;;;423.02;37.65;;;2.00;99.90;;;;;;5093553;28;20042;-80
2022/01/13 07:18:28;;;;;;;233.02;30.10;;;2.10;99.90;;;;;;5093909;28;20016;-80
2022/01/13 07:20:56;;;;;;;350.67;33.38;;;2.20;99.90;;;;;;5093519;28;20063;-80
2022/01/13 07:23:22;;;;;;;326.17;30.05;;;2.00;99.90;;;;;;5092525;28;20020;-81
2022/01/13 07:25:48;;;;;;;311.58;28.88;;;1.90;99.90;;;;;;5093374;28;20035;-78
2022/01/13 07:28:14;;;;;;;252.23;30.10;;;2.00;99.90;;;;;;5093495;28;20077;-78
2022/01/13 07:30:39;;;;;;;286.13;27.92;;;2.00;99.90;;;;;;5093168;28;20032;-78
2022/01/13 07:33:05;;;;;;;243.90;26.17;;;1.90;99.90;;;;;;5093647;28;20060;-78
2022/01/13 07:35:31;;;;;;;469.55;37.40;;;1.80;99.90;;;;;;5093586;28;20051;-78
2022/01/13 07:37:58;;;;;;;236.80;29.80;;;1.90;99.90;;;;;;5093501;28;20021;-78
2022/01/13 07:40:23;;;;;;;332.13;34.38;;;1.90;99.90;;;;;;5093530;28;20024;-78
2022/01/13 07:42:49;;;;;;;435.55;36.15;;;1.80;99.90;;;;;;5093422;28;20392;-78
2022/01/13 07:45:18;;;;;;;426.52;40.08;;;1.90;99.90;;;;;;5092912;28;20040;-78
2022/01/13 07:47:44;;;;;;;579.38;43.92;;;2.00;99.90;;;;;;5093037;28;20024;-77
2022/01/13 07:50:12;;;;;;;385.20;35.42;;;2.20;99.90;;;;;;5093409;28;20035;-79
2022/01/13 07:52:38;;;;;;;405.52;35.97;;;2.00;99.90;;;;;;5093096;28;20113;-79
2022/01/13 07:55:04;;;;;;;244.52;25.70;;;2.10;99.90;;;;;;5093415;28;20471;-78
2022/01/13 07:57:30;;;;;;;469.67;39.08;;;1.90;99.90;;;;;;5093080;28;20025;-78
2022/01/13 07:59:56;;;;;;;336.65;33.30;;;2.00;99.90;;;;;;5092894;28;20038;-78
2022/01/13 08:02:22;;;;;;;326.58;30.27;;;2.00;99.90;;;;;;5091880;28;20038;-76
2022/01/13 08:04:49;;;;;;;306.52;30.63;;;2.00;99.90;;;;;;5092931;28;20028;-78
2022/01/13 08:07:15;;;;;;;358.50;32.35;;;1.90;99.90;;;;;;5091773;28;20146;-78
2022/01/13 08:09:42;;;;;;;449.50;37.70;;;1.90;99.90;;;;;;5093142;28;20070;-78
2022/01/13 08:12:08;;;;;;;367.10;36.83;;;2.10;99.90;;;;;;5093016;28;20061;-78
2022/01/13 08:14:34;;;;;;;531.42;42.30;;;2.20;99.90;;;;;;5092855;28;20024;-79
2022/01/13 08:17:02;;;;;;;411.88;40.35;;;2.20;99.90;;;;;;5092908;28;20028;-78
2022/01/13 08:19:46;;;;;;;395.90;36.08;;;2.10;99.90;;;;;;5091441;28;20403;-78
2022/01/13 08:22:16;;;;;;;315.23;30.50;;;2.10;99.90;;;;;;5092993;28;20064;-78
2022/01/13 08:24:43;;;;;;;447.40;39.15;;;2.10;99.90;;;;;;5092705;28;20032;-78
2022/01/13 08:27:09;;;;;;;387.58;39.92;;;2.20;99.90;;;;;;5092455;28;20028;-78
2022/01/13 08:29:35;;;;;;;410.08;33.75;;;2.10;99.90;;;;;;5092865;28;20400;-79
2022/01/13 08:32:01;;;;;;;242.80;25.65;;;2.20;99.90;;;;;;5092775;28;20036;-79
2022/01/13 08:34:27;;;;;;;364.00;32.65;;;2.00;99.90;;;;;;5092752;28;20032;-78
2022/01/13 08:36:53;;;;;;;192.88;25.95;;;2.10;99.90;;;;;;5092732;28;20507;-78
2022/01/13 08:39:18;;;;;;;201.23;28.77;;;2.10;99.90;;;;;;5092797;28;20058;-79
2022/01/13 08:41:45;;;;;;;276.80;30.60;;;2.00;99.90;;;;;;5092570;28;20032;-77
2022/01/13 08:44:11;;;;;;;428.92;34.97;;;2.00;99.90;;;;;;5092531;28;20061;-77
2022/01/13 08:46:37;;;;;;;260.23;32.05;;;2.10;99.90;;;;;;5092764;28;20039;-78
2022/01/13 08:49:03;;;;;;;426.45;37.50;;;2.30;99.90;;;;;;5092297;28;20016;-79
2022/01/13 08:51:29;;;;;;;475.30;43.42;;;2.10;99.90;;;;;;5092733;28;20031;-78
2022/01/13 08:53:55;;;;;;;150.23;23.25;;;2.30;99.90;;;;;;5092377;28;20021;-78
2022/01/13 08:56:21;;;;;;;187.98;25.80;;;2.00;99.90;;;;;;5092750;28;20376;-78
2022/01/13 08:58:47;;;;;;;211.15;27.98;;;2.00;99.90;;;;;;5094576;28;20054;-76
2022/01/13 09:01:13;;;;;;;235.48;30.08;;;2.00;99.90;;;;;;5096608;28;20105;-79
2022/01/13 09:03:39;;;;;;;271.33;35.08;;;2.10;99.90;;;;;;5096169;28;20027;-78
2022/01/13 09:06:05;;;;;;;264.38;31.13;;;2.10;99.90;;;;;;5096132;28;20028;-78
2022/01/13 09:08:31;;;;;;;314.00;31.13;;;2.20;99.90;;;;;;5096253;28;20036;-76
2022/01/13 09:10:57;;;;;;;269.92;33.63;;;2.20;99.90;;;;;;5095984;28;20078;-78
2022/01/13 09:13:23;;;;;;;275.10;31.42;;;2.30;99.90;;;;;;5096180;28;20024;-78
2022/01/13 09:15:59;;;;;;;239.95;31.10;;;2.40;99.90;;;;;;5096167;28;20023;-77
2022/01/13 09:18:33;;;;;;;174.93;28.67;;;2.40;99.90;;;;;;5096029;28;20036;-79
2022/01/13 09:20:59;;;;;;;170.40;28.02;;;2.30;99.90;;;;;;5095970;28;20071;-79
2022/01/13 09:23:25;;;;;;;207.95;29.02;;;2.30;99.90;;;;;;5094923;28;20400;-79
2022/01/13 09:25:52;;;;;;;335.52;36.03;;;2.20;99.90;;;;;;5093951;28;20040;-79
2022/01/13 09:28:18;;;;;;;314.77;36.80;;;2.30;99.90;;;;;;5096074;28;20032;-79
2022/01/13 09:30:44;;;;;;;439.05;43.92;;;2.10;99.90;;;;;;5094560;28;20533;-79
2022/01/13 09:33:10;;;;;;;363.88;39.40;;;2.30;99.90;;;;;;5094726;28;20053;-79
2022/01/13 09:35:36;;;;;;;192.50;31.88;;;2.30;99.90;;;;;;5095680;28;20112;-79
2022/01/13 09:38:03;;;;;;;358.25;38.53;;;2.50;99.90;;;;;;5095729;28;20105;-78
2022/01/13 09:40:28;;;;;;;372.00;39.17;;;2.30;99.90;;;;;;5095335;28;20024;-79
2022/01/13 09:42:54;;;;;;;340.42;39.03;;;2.40;99.90;;;;;;5095813;28;20016;-79
2022/01/13 09:45:21;;;;;;;384.95;39.75;;;2.60;99.90;;;;;;5094252;28;20024;-79
2022/01/13 09:47:48;;;;;;;245.95;35.20;;;2.70;99.90;;;;;;5095945;28;20411;-80
2022/01/13 09:50:18;;;;;;;301.52;35.55;;;2.70;99.90;;;;;;5095335;28;20028;-77
2022/01/13 09:52:45;;;;;;;330.50;38.40;;;2.70;99.90;;;;;;5095572;28;20457;-79
2022/01/13 09:55:13;;;;;;;291.00;35.05;;;2.80;99.90;;;;;;5094790;28;20491;-78
2022/01/13 09:57:43;;;;;;;320.17;34.65;;;2.70;99.90;;;;;;5095519;28;20019;-79
2022/01/13 10:00:12;;;;;;;307.63;37.10;;;2.90;99.90;;;;;;5095196;28;20020;-80
2022/01/13 10:02:38;;;;;;;219.40;31.85;;;2.70;99.90;;;;;;5094051;28;20032;-79
2022/01/13 10:05:04;;;;;;;369.02;42.90;;;2.70;99.90;;;;;;5095099;28;20062;-79
2022/01/13 10:07:32;;;;;;;278.50;40.55;;;2.80;99.90;;;;;;5095073;28;20530;-78
2022/01/13 10:10:00;;;;;;;314.65;45.40;;;2.90;99.90;;;;;;5094527;28;20107;-78
2022/01/13 10:12:32;;;;;;;467.23;45.97;;;3.10;99.90;;;;;;5095157;28;20031;-78
2022/01/13 10:17:26;;;;;;;305.27;40.58;;;3.20;99.90;;;;;;5093855;28;20028;-77
2022/01/13 10:19:55;;;;;;;475.75;47.53;;;3.10;99.90;;;;;;5094705;28;20511;-77
2022/01/13 10:22:30;;;;;;;412.60;42.92;;;3.40;99.90;;;;;;5095286;28;20093;-81
2022/01/13 10:24:58;;;;;;;385.42;38.88;;;3.10;99.90;;;;;;5093150;28;20056;-77
2022/01/13 10:27:32;;;;;;;374.00;42.22;;;3.20;99.90;;;;;;5093476;28;20020;-78
2022/01/13 10:30:01;;;;;;;261.48;36.20;;;3.30;99.90;;;;;;5094616;28;20111;-77
2022/01/13 10:32:36;;;;;;;317.08;41.75;;;3.20;99.90;;;;;;5093337;28;20067;-78
2022/01/13 10:35:12;;;;;;;373.88;44.67;;;2.70;99.90;;;;;;5094614;28;20063;-79
2022/01/13 10:37:59;;;;;;;207.77;37.08;;;2.80;99.90;;;;;;5093173;28;20110;-80
2022/01/13 10:40:33;;;;;;;368.15;39.95;;;2.90;99.90;;;;;;5094428;28;20032;-80
2022/01/13 10:45:34;;;;;;;254.77;38.28;;;2.90;99.90;;;;;;5094328;28;20059;-79
2022/01/13 10:48:03;;;;;;;326.63;39.60;;;3.00;99.90;;;;;;5094121;28;20043;-80
2022/01/13 10:50:30;;;;;;;193.50;35.55;;;3.10;99.90;;;;;;5094328;28;20488;-80
2022/01/13 10:53:02;;;;;;;382.80;44.78;;;3.00;99.90;;;;;;5092866;28;20044;-79
2022/01/13 10:55:30;;;;;;;197.35;35.33;;;3.10;99.90;;;;;;5094125;28;20112;-80
2022/01/13 10:57:57;;;;;;;216.80;34.35;;;3.10;99.90;;;;;;5093969;28;20503;-78
2022/01/13 11:00:25;;;;;;;181.57;33.70;;;3.10;99.90;;;;;;5094293;28;20388;-81
2022/01/13 11:03:07;;;;;;;173.07;33.45;;;3.10;99.90;;;;;;5093955;28;20036;-80
2022/01/13 11:05:35;;;;;;;;;;;3.10;99.90;;;;;;5094355;28;20051;-80
2022/01/13 11:08:06;;;;;;;250.80;32.58;;;3.20;99.90;;;;;;5093375;28;20356;-79
2022/01/13 11:10:33;;;;;;;319.77;39.72;;;3.00;99.90;;;;;;5093917;28;20032;-80
2022/01/13 11:13:01;;;;;;;405.13;42.35;;;3.30;99.90;;;;;;5093716;28;20035;-79
2022/01/13 11:15:27;;;;;;;239.50;38.40;;;3.50;99.90;;;;;;5093913;28;20036;-78
2022/01/13 11:17:55;;;;;;;230.18;34.90;;;3.80;99.90;;;;;;5093853;28;20039;-80
2022/01/13 11:20:22;;;;;;;158.30;33.38;;;3.90;99.90;;;;;;5092906;28;20036;-79
2022/01/13 11:22:50;;;;;;;226.80;36.97;;;3.80;99.90;;;;;;5093282;28;20035;-80
2022/01/13 11:25:19;;;;;;;286.02;41.83;;;3.50;99.90;;;;;;5093572;28;20043;-80
2022/01/13 11:27:46;;;;;;;238.55;44.97;;;3.60;99.90;;;;;;5093414;28;20090;-79
2022/01/13 11:30:14;;;;;;;163.80;41.83;;;3.70;99.90;;;;;;5093567;28;20020;-80
2022/01/13 11:32:42;;;;;;;202.05;45.58;;;3.50;99.90;;;;;;5093420;28;20036;-80
2022/01/13 11:35:19;;;;;;;259.38;40.17;;;3.40;99.90;;;;;;5093373;28;20389;-79
2022/01/13 11:37:46;;;;;;;244.32;36.75;;;3.70;99.90;;;;;;5093040;28;20027;-79
2022/01/13 11:40:35;;;;;;;227.25;37.83;;;3.70;99.90;;;;;;5092081;28;20340;-80
2022/01/13 11:43:03;;;;;;;165.50;33.17;;;3.70;99.90;;;;;;5093158;28;20036;-80
2022/01/13 11:45:29;;;;;;;255.63;37.38;;;3.70;99.90;;;;;;5091928;28;20032;-79
2022/01/13 11:48:25;;;;;;;343.02;38.03;;;3.70;99.90;;;;;;5093239;28;20028;-80
2022/01/13 11:51:14;;;;;;;244.90;39.53;;;3.80;99.90;;;;;;5093055;28;20077;-80
2022/01/13 11:53:51;;;;;;;276.98;40.55;;;3.70;99.90;;;;;;5091730;28;20036;-79
2022/01/13 11:56:17;;;;;;;198.23;40.80;;;3.70;99.90;;;;;;5093289;28;20043;-80
2022/01/13 11:58:46;;;;;;;222.85;40.40;;;3.70;99.90;;;;;;5093167;28;20017;-80
2022/01/13 12:01:20;;;;;;;131.38;35.20;;;3.70;99.90;;;;;;5091869;28;20036;-80
2022/01/13 12:03:54;;;;;;;177.88;41.60;;;3.70;99.90;;;;;;5092750;28;20474;-79
2022/01/13 12:06:46;;;;;;;255.80;43.63;;;3.50;99.90;;;;;;5091285;28;20046;-80
2022/01/13 12:09:32;;;;;;;250.43;41.33;;;3.70;99.90;;;;;;5092883;28;20111;-80
2022/01/13 12:11:59;;;;;;;182.77;38.78;;;3.80;99.90;;;;;;5093023;28;20123;-79
2022/01/13 12:14:28;;;;;;;270.67;45.47;;;3.70;99.90;;;;;;5092873;28;20101;-79
2022/01/13 12:17:00;;;;;;;180.52;39.22;;;3.90;99.90;;;;;;5092718;28;20032;-79
2022/01/13 12:19:47;;;;;;;224.57;42.80;;;3.80;99.90;;;;;;5092313;28;20031;-79
2022/01/13 12:22:40;;;;;;;203.10;43.25;;;3.90;99.90;;;;;;5092962;28;20040;-80
2022/01/13 12:25:12;;;;;;;215.05;42.92;;;3.80;99.90;;;;;;5092628;28;20032;-80
2022/01/13 12:27:43;;;;;;;280.40;47.25;;;3.90;99.90;;;;;;5091430;28;20042;-80
2022/01/13 12:30:17;;;;;;;174.13;43.42;;;3.90;99.90;;;;;;5091338;28;20123;-80
2022/01/13 12:32:57;;;;;;;154.00;42.00;;;4.00;99.90;;;;;;5093312;28;20107;-80
2022/01/13 12:35:37;;;;;;;147.68;42.67;;;4.00;99.90;;;;;;5096808;28;20389;-78
2022/01/13 12:38:09;;;;;;;231.90;43.75;;;3.80;99.90;;;;;;5096901;28;20040;-79
2022/01/13 12:40:50;;;;;;;189.73;42.97;;;3.80;99.90;;;;;;5096835;28;20098;-79
2022/01/13 12:43:49;;;;;;;176.68;40.60;;;3.90;99.90;;;;;;5095313;28;20028;-78
2022/01/13 12:46:16;;;;;;;163.82;40.85;;;3.80;99.90;;;;;;5096670;28;20338;-79
2022/01/13 12:48:44;;;;;;;184.65;40.58;;;3.80;99.90;;;;;;5096358;28;20047;-79
2022/01/13 12:51:15;;;;;;;178.70;43.53;;;3.70;99.90;;;;;;5096649;28;20028;-79
2022/01/13 12:53:42;;;;;;;150.18;43.10;;;4.00;99.90;;;;;;5096438;28;20028;-79
2022/01/13 12:56:16;;;;;;;156.60;42.60;;;4.00;99.90;;;;;;5096555;28;20028;-79
2022/01/13 12:58:46;;;;;;;192.43;44.05;;;3.90;99.90;;;;;;5096510;28;20042;-79
2022/01/13 13:01:22;;;;;;;185.57;48.58;;;3.80;99.90;;;;;;5096516;28;20044;-79
2022/01/13 13:04:20;;;;;;;178.80;46.25;;;4.10;99.90;;;;;;5096076;28;20024;-79